• Join FlightAware (Why Join?)
  • Login
  • US Flag 
11:13AM EDT


 

Airport Tracker/Info


-or-


 

Live Flight TrackerFlight Track Log ✈ AAL270 ✈ 24-Apr-2013 ✈ PHNL - KLAX

Flight Track Log - Related Links

Times and Time Zones

All times are in EDT time to prevent confusion due to time zone crossing. See the AAL270 flight status page for this flight to view local times or setup timezone preferences in your user account.

Time Position Orientation Groundspeed Altitude Reporting Facility
EDT Latitude Longitude Course Direction KTS MPH feet Rate Location/Type
01:38PM 21.2095 -157.5150 108° East  Level FlightAware Approximate
01:39PM 21.1799 -157.3795 100° East  Level FlightAware Approximate
01:40PM 21.1525 -157.2435 105° East  Level FlightAware Approximate
01:40PM 21.0850 -157.6220 75° East 329 379 10,700  Level FlightAware
01:41PM 21.1478 -157.1090 75° East  Level FlightAware Approximate
01:41PM 21.0390 -157.5290 118° Southeast 362 417 12,500  Level FlightAware
01:42PM 20.9980 -157.4450 118° Southeast 369 425 14,500 1,980 Climbing FlightAware
01:43PM 20.9370 -157.3280 119° Southeast 382 440 16,900 1,860 Climbing FlightAware
01:44PM 20.8860 -157.2330 120° Southeast 391 450 18,600 1,800 Climbing FlightAware
01:45PM 20.8530 -157.1710 120° Southeast 399 459 19,600 1,560 Climbing FlightAware
01:45PM 20.8210 -157.0970 115° Southeast 403 464 20,600 1,500 Climbing FlightAware
01:46PM 20.8000 -156.9970 103° East 414 476 21,900 1,440 Climbing FlightAware
01:47PM 20.7980 -156.8940 91° East 420 483 23,200 1,380 Climbing FlightAware
01:48PM 20.7990 -156.7770 89° East 429 494 24,400 720 Climbing FlightAware
01:49PM 20.7990 -156.6920 90° East 429 494 24,400 780 Level FlightAware
01:49PM 20.8000 -156.5830 89° East 435 501 25,700 960 Climbing FlightAware
01:50PM 20.8000 -156.5280 90° East 435 501 25,700 1,200 Level FlightAware
01:51PM 20.8040 -156.3940 88° East 465 535 27,400 1,620 Climbing FlightAware
01:51PM 20.8050 -156.3030 89° East 473 544 28,200 1,320 Climbing FlightAware
01:52PM 20.8060 -156.1960 89° East 483 556 29,200 840 Climbing FlightAware
01:53PM 20.8080 -156.1140 88° East 485 558 29,400 120 Climbing FlightAware
01:54PM 20.8090 -156.0330 89° East 485 558 29,400  Level FlightAware
01:54PM 20.8110 -155.9310 89° East 485 558 29,400  Level FlightAware
01:55PM 20.8120 -155.8490 89° East 485 558 29,400  Level FlightAware
01:56PM 20.8130 -155.7680 89° East 485 558 29,400  Level FlightAware
01:56PM 20.8150 -155.6860 88° East 485 558 29,400 5,640 Level FlightAware
01:57PM 20.9167 -155.5500 88° East 510 587 34,600 5,040 Climbing Honolulu Center
01:58PM 20.9333 -155.4167 82° East 500 575 35,700 900 Climbing Honolulu Center
01:59PM 20.9667 -155.2667 77° East 510 587 36,500 600 Climbing Honolulu Center
02:00PM 20.9833 -155.1167 83° East 510 587 37,000 240 Climbing Honolulu Center
02:01PM 21.0167 -154.9500 78° East 520 598 37,000  Level Honolulu Center
02:02PM 21.0333 -154.8000 83° East 510 587 37,000  Level Honolulu Center
02:03PM 21.0667 -154.6500 77° East 510 587 37,000  Level Honolulu Center
02:04PM 21.0833 -154.5000 83° East 510 587 37,000  Level Honolulu Center
02:05PM 21.1167 -154.3500 77° East 510 587 37,000  Level Honolulu Center
02:06PM 21.1333 -154.2000 83° East 510 587 37,000  Level Honolulu Center
02:07PM 21.1500 -154.0500 83° East 500 575 37,000  Level Honolulu Center
02:08PM 21.1833 -153.9000 77° East 500 575 37,000  Level Honolulu Center
02:09PM 21.2000 -153.7500 83° East 500 575 37,000  Level Honolulu Center
02:10PM 21.2167 -153.6167 82° East 500 575 37,000  Level Honolulu Center
02:11PM 21.2500 -153.4667 77° East 490 564 37,000  Level Honolulu Center
02:12PM 21.2667 -153.3167 83° East 500 575 37,000  Level Honolulu Center
02:14PM 21.3031 -153.0589 81° East  Level FlightAware Approximate
02:21PM 21.4361 -152.0912 81° East  Level FlightAware Approximate
02:22PM 21.4546 -151.9528 82° East  Level FlightAware Approximate
02:23PM 21.4731 -151.8143 82° East  Level FlightAware Approximate
02:24PM 21.4914 -151.6759 82° East  Level FlightAware Approximate
02:25PM 21.5096 -151.5374 82° East  Level FlightAware Approximate
02:26PM 21.5597 -151.4127 63° Northeast  Level FlightAware Approximate
02:27PM 21.6185 -151.2879 63° Northeast  Level FlightAware Approximate
02:27PM 21.5500 -151.4667 63° Northeast 476 548 37,000  Level Oakland Oceanic (ODAPS)
02:28PM 21.6771 -151.1629 63° Northeast  Level FlightAware Approximate
02:29PM 21.7358 -151.0377 63° Northeast  Level FlightAware Approximate
02:30PM 21.7943 -150.9124 63° Northeast  Level FlightAware Approximate
02:31PM 21.8527 -150.7870 63° Northeast  Level FlightAware Approximate
02:32PM 21.9110 -150.6616 63° Northeast  Level FlightAware Approximate
02:33PM 22.0851 -150.3198 64° Northeast 476 548 37,000  Level FlightAware Transoceanic
02:34PM 22.1441 -150.1918 64° Northeast 476 548 37,000  Level FlightAware Transoceanic
02:35PM 22.2029 -150.0638 64° Northeast 476 548 37,000  Level FlightAware Transoceanic
02:36PM 22.2617 -149.9356 64° Northeast 476 548 37,000  Level FlightAware Transoceanic
02:37PM 22.3204 -149.8073 64° Northeast 476 548 37,000  Level FlightAware Transoceanic
02:38PM 22.3789 -149.6789 64° Northeast 476 548 37,000  Level FlightAware Transoceanic
02:39PM 22.4374 -149.5504 64° Northeast 476 548 37,000  Level FlightAware Transoceanic
02:40PM 22.4957 -149.4218 64° Northeast 476 548 37,000  Level FlightAware Transoceanic
02:41PM 22.5540 -149.2931 64° Northeast 476 548 37,000  Level FlightAware Transoceanic
02:42PM 22.6122 -149.1643 64° Northeast 476 548 37,000  Level FlightAware Transoceanic
02:43PM 22.6702 -149.0353 64° Northeast 476 548 37,000  Level FlightAware Transoceanic
02:44PM 22.7281 -148.9063 64° Northeast 476 548 37,000  Level FlightAware Transoceanic
02:45PM 22.7860 -148.7771 64° Northeast 476 548 37,000  Level FlightAware Transoceanic
02:46PM 22.8437 -148.6479 64° Northeast 476 548 37,000  Level FlightAware Transoceanic
02:47PM 22.9014 -148.5185 64° Northeast 476 548 37,000  Level FlightAware Transoceanic
02:48PM 22.9589 -148.3890 64° Northeast 476 548 37,000  Level FlightAware Transoceanic
02:49PM 23.0163 -148.2594 64° Northeast 476 548 37,000  Level FlightAware Transoceanic
02:50PM 23.0737 -148.1297 64° Northeast 476 548 37,000  Level FlightAware Transoceanic
02:51PM 23.1309 -147.9999 64° Northeast 476 548 37,000  Level FlightAware Transoceanic
02:52PM 23.1880 -147.8700 64° Northeast 476 548 37,000  Level FlightAware Transoceanic
02:53PM 23.2450 -147.7400 65° Northeast 476 548 37,000  Level FlightAware Transoceanic
02:54PM 23.3019 -147.6098 65° Northeast 476 548 37,000  Level FlightAware Transoceanic
02:55PM 23.3587 -147.4796 65° Northeast 476 548 37,000  Level FlightAware Transoceanic
02:56PM 23.4153 -147.3492 65° Northeast 476 548 37,000  Level FlightAware Transoceanic
02:57PM 23.4719 -147.2187 65° Northeast 476 548 37,000  Level FlightAware Transoceanic
02:58PM 23.5284 -147.0881 65° Northeast 476 548 37,000  Level FlightAware Transoceanic
02:59PM 23.5847 -146.9574 65° Northeast 476 548 37,000  Level FlightAware Transoceanic
03:00PM 23.6410 -146.8266 65° Northeast 476 548 37,000  Level FlightAware Transoceanic
03:01PM 23.6971 -146.6957 65° Northeast 476 548 37,000  Level FlightAware Transoceanic
03:02PM 23.7531 -146.5647 65° Northeast 476 548 37,000  Level FlightAware Transoceanic
03:03PM 23.8090 -146.4335 65° Northeast 476 548 37,000  Level FlightAware Transoceanic
03:04PM 23.8648 -146.3022 65° Northeast 476 548 37,000  Level FlightAware Transoceanic
03:05PM 23.9205 -146.1709 65° Northeast 476 548 37,000  Level FlightAware Transoceanic
03:06PM 23.9761 -146.0394 65° Northeast 476 548 37,000  Level FlightAware Transoceanic
03:07PM 24.0316 -145.9078 65° Northeast 476 548 37,000  Level FlightAware Transoceanic
03:08PM 24.0869 -145.7760 65° Northeast 476 548 37,000  Level FlightAware Transoceanic
03:09PM 24.1422 -145.6442 65° Northeast 476 548 37,000  Level FlightAware Transoceanic
03:10PM 24.1973 -145.5123 65° Northeast 476 548 37,000  Level FlightAware Transoceanic
03:11PM 24.2523 -145.3802 65° Northeast 476 548 37,000  Level FlightAware Transoceanic
03:12PM 24.3072 -145.2480 66° East 476 548 37,000  Level FlightAware Transoceanic
03:13PM 24.3620 -145.1157 66° East 476 548 37,000  Level FlightAware Transoceanic
03:14PM 24.4167 -144.9833 66° East 476 548 37,000  Level FlightAware Transoceanic
03:15PM 24.4725 -144.8478 66° East 476 548 37,000  Level FlightAware Transoceanic
03:16PM 24.5281 -144.7122 66° East 476 548 37,000  Level FlightAware Transoceanic
03:16PM 24.4167 -144.9833 66° East 468 539 37,000  Level Oakland Oceanic (ODAPS)
03:17PM 24.5837 -144.5764 66° East 476 548 37,000  Level FlightAware Transoceanic
03:18PM 24.6391 -144.4406 66° East 476 548 37,000  Level FlightAware Transoceanic
03:19PM 24.6944 -144.3046 66° East 476 548 37,000  Level FlightAware Transoceanic
03:20PM 24.7495 -144.1685 66° East 476 548 37,000  Level FlightAware Transoceanic
03:21PM 24.8046 -144.0323 66° East 476 548 37,000  Level FlightAware Transoceanic
03:22PM 24.8423 -143.9387 66° East 468 539 37,000  Level FlightAware Transoceanic
03:23PM 24.8950 -143.8076 66° East 468 539 37,000  Level FlightAware Transoceanic
03:24PM 24.9476 -143.6764 66° East 468 539 37,000  Level FlightAware Transoceanic
03:25PM 25.0000 -143.5451 66° East 468 539 37,000  Level FlightAware Transoceanic
03:26PM 25.0524 -143.4137 66° East 468 539 37,000  Level FlightAware Transoceanic
03:27PM 25.1046 -143.2822 66° East 468 539 37,000  Level FlightAware Transoceanic
03:28PM 25.1567 -143.1505 66° East 468 539 37,000  Level FlightAware Transoceanic
03:29PM 25.2087 -143.0188 66° East 468 539 37,000  Level FlightAware Transoceanic
03:30PM 25.2606 -142.8869 67° East 468 539 37,000  Level FlightAware Transoceanic
03:31PM 25.3124 -142.7549 67° East 468 539 37,000  Level FlightAware Transoceanic
03:32PM 25.3640 -142.6228 67° East 468 539 37,000  Level FlightAware Transoceanic
03:33PM 25.4156 -142.4906 67° East 468 539 37,000  Level FlightAware Transoceanic
03:34PM 25.4670 -142.3583 67° East 468 539 37,000  Level FlightAware Transoceanic
03:35PM 25.5183 -142.2259 67° East 468 539 37,000  Level FlightAware Transoceanic
03:36PM 25.5694 -142.0933 67° East 468 539 37,000  Level FlightAware Transoceanic
03:37PM 25.6205 -141.9607 67° East 468 539 37,000  Level FlightAware Transoceanic
03:38PM 25.6714 -141.8279 67° East 468 539 37,000  Level FlightAware Transoceanic
03:39PM 25.7222 -141.6950 67° East 468 539 37,000  Level FlightAware Transoceanic
03:40PM 25.7729 -141.5620 67° East 468 539 37,000  Level FlightAware Transoceanic
03:41PM 25.8235 -141.4289 67° East 468 539 37,000  Level FlightAware Transoceanic
03:42PM 25.8740 -141.2957 67° East 468 539 37,000  Level FlightAware Transoceanic
03:43PM 25.9243 -141.1623 67° East 468 539 37,000  Level FlightAware Transoceanic
03:44PM 25.9745 -141.0289 67° East 468 539 37,000  Level FlightAware Transoceanic
03:45PM 26.0246 -140.8953 67° East 468 539 37,000  Level FlightAware Transoceanic
03:46PM 26.0746 -140.7616 67° East 468 539 37,000  Level FlightAware Transoceanic
03:47PM 26.1244 -140.6279 68° East 468 539 37,000  Level FlightAware Transoceanic
03:48PM 26.1741 -140.4939 68° East 468 539 37,000  Level FlightAware Transoceanic
03:49PM 26.2237 -140.3599 68° East 468 539 37,000  Level FlightAware Transoceanic
03:50PM 26.2732 -140.2258 68° East 468 539 37,000  Level FlightAware Transoceanic
03:51PM 26.3225 -140.0915 68° East 468 539 37,000  Level FlightAware Transoceanic
03:52PM 26.3717 -139.9572 68° East 468 539 37,000  Level FlightAware Transoceanic
03:53PM 26.4208 -139.8227 68° East 468 539 37,000  Level FlightAware Transoceanic
03:54PM 26.4698 -139.6881 68° East 468 539 37,000  Level FlightAware Transoceanic
03:55PM 26.5186 -139.5534 68° East 468 539 37,000  Level FlightAware Transoceanic
03:56PM 26.5673 -139.4186 68° East 468 539 37,000  Level FlightAware Transoceanic
03:57PM 26.6159 -139.2836 68° East 468 539 37,000  Level FlightAware Transoceanic
03:58PM 26.6644 -139.1486 68° East 468 539 37,000  Level FlightAware Transoceanic
03:59PM 26.7127 -139.0134 68° East 468 539 37,000  Level FlightAware Transoceanic
04:00PM 26.7609 -138.8781 68° East 468 539 37,000  Level FlightAware Transoceanic
04:01PM 26.8090 -138.7427 68° East 468 539 37,000  Level FlightAware Transoceanic
04:02PM 26.8569 -138.6072 68° East 468 539 37,000  Level FlightAware Transoceanic
04:03PM 26.9048 -138.4716 68° East 468 539 37,000  Level FlightAware Transoceanic
04:04PM 26.9524 -138.3358 69° East 468 539 37,000  Level FlightAware Transoceanic
04:05PM 27.0000 -138.2000 69° East 468 539 37,000  Level FlightAware Transoceanic
04:06PM 27.0480 -138.0621 69° East 468 539 37,000  Level FlightAware Transoceanic
04:07PM 27.0958 -137.9241 69° East 468 539 37,000  Level FlightAware Transoceanic
04:08PM 27.1435 -137.7859 69° East 468 539 37,000  Level FlightAware Transoceanic
04:08PM 27.0000 -138.2000 69° East 457 526 37,000  Level Oakland Oceanic (ODAPS)
04:09PM 27.1911 -137.6476 69° East 468 539 37,000  Level FlightAware Transoceanic
04:10PM 27.2385 -137.5092 69° East 468 539 37,000  Level FlightAware Transoceanic
04:11PM 27.2858 -137.3707 69° East 468 539 37,000  Level FlightAware Transoceanic
04:12PM 27.3329 -137.2321 69° East 468 539 37,000  Level FlightAware Transoceanic
04:13PM 27.3800 -137.0934 69° East 468 539 37,000  Level FlightAware Transoceanic
04:14PM 27.4109 -137.0017 69° East 457 526 37,000  Level FlightAware Transoceanic
04:15PM 27.4560 -136.8680 69° East 457 526 37,000  Level FlightAware Transoceanic
04:16PM 27.5009 -136.7342 69° East 457 526 37,000  Level FlightAware Transoceanic
04:17PM 27.5456 -136.6003 69° East 457 526 37,000  Level FlightAware Transoceanic
04:18PM 27.5903 -136.4663 69° East 457 526 37,000  Level FlightAware Transoceanic
04:19PM 27.6348 -136.3322 69° East 457 526 37,000  Level FlightAware Transoceanic
04:20PM 27.6792 -136.1979 70° East 457 526 37,000  Level FlightAware Transoceanic
04:21PM 27.7234 -136.0636 70° East 457 526 37,000  Level FlightAware Transoceanic
04:22PM 27.7675 -135.9291 70° East 457 526 37,000  Level FlightAware Transoceanic
04:23PM 27.8115 -135.7946 70° East 457 526 37,000  Level FlightAware Transoceanic
04:24PM 27.8554 -135.6599 70° East 457 526 37,000  Level FlightAware Transoceanic
04:25PM 27.8991 -135.5251 70° East 457 526 37,000  Level FlightAware Transoceanic
04:26PM 27.9427 -135.3902 70° East 457 526 37,000  Level FlightAware Transoceanic
04:27PM 27.9862 -135.2552 70° East 457 526 37,000  Level FlightAware Transoceanic
04:28PM 28.0296 -135.1201 70° East 457 526 37,000  Level FlightAware Transoceanic
04:29PM 28.0728 -134.9849 70° East 457 526 37,000  Level FlightAware Transoceanic
04:30PM 28.1158 -134.8496 70° East 457 526 37,000  Level FlightAware Transoceanic
04:31PM 28.1588 -134.7141 70° East 457 526 37,000  Level FlightAware Transoceanic
04:32PM 28.2016 -134.5786 70° East 457 526 37,000  Level FlightAware Transoceanic
04:33PM 28.2443 -134.4429 70° East 457 526 37,000  Level FlightAware Transoceanic
04:34PM 28.2868 -134.3072 70° East 457 526 37,000  Level FlightAware Transoceanic
04:35PM 28.3292 -134.1713 71° East 457 526 37,000  Level FlightAware Transoceanic
04:36PM 28.3715 -134.0353 71° East 457 526 37,000  Level FlightAware Transoceanic
04:37PM 28.4136 -133.8993 71° East 457 526 37,000  Level FlightAware Transoceanic
04:38PM 28.4556 -133.7631 71° East 457 526 37,000  Level FlightAware Transoceanic
04:39PM 28.4975 -133.6268 71° East 457 526 37,000  Level FlightAware Transoceanic
04:40PM 28.5392 -133.4904 71° East 457 526 37,000  Level FlightAware Transoceanic
04:41PM 28.5808 -133.3539 71° East 457 526 37,000  Level FlightAware Transoceanic
04:42PM 28.6222 -133.2172 71° East 457 526 37,000  Level FlightAware Transoceanic
04:43PM 28.6636 -133.0805 71° East 457 526 37,000  Level FlightAware Transoceanic
04:44PM 28.7048 -132.9436 71° East 457 526 37,000  Level FlightAware Transoceanic
04:45PM 28.7458 -132.8067 71° East 457 526 37,000  Level FlightAware Transoceanic
04:46PM 28.7867 -132.6696 71° East 457 526 37,000  Level FlightAware Transoceanic
04:47PM 28.8275 -132.5325 71° East 457 526 37,000  Level FlightAware Transoceanic
04:48PM 28.8681 -132.3952 71° East 457 526 37,000  Level FlightAware Transoceanic
04:49PM 28.9086 -132.2578 71° East 457 526 37,000  Level FlightAware Transoceanic
04:50PM 28.9489 -132.1204 71° East 457 526 37,000  Level FlightAware Transoceanic
04:51PM 28.9891 -131.9828 72° East 457 526 37,000  Level FlightAware Transoceanic
04:52PM 29.0292 -131.8451 72° East 457 526 37,000  Level FlightAware Transoceanic
04:53PM 29.0691 -131.7073 72° East 457 526 37,000  Level FlightAware Transoceanic
04:54PM 29.1089 -131.5694 72° East 457 526 37,000  Level FlightAware Transoceanic
04:55PM 29.1486 -131.4314 72° East 457 526 37,000  Level FlightAware Transoceanic
04:56PM 29.1881 -131.2932 72° East 457 526 37,000  Level FlightAware Transoceanic
04:57PM 29.2274 -131.1550 72° East 457 526 37,000  Level FlightAware Transoceanic
04:58PM 29.2667 -131.0167 72° East 457 526 37,000  Level FlightAware Transoceanic
04:59PM 29.3065 -130.8758 72° East 457 526 37,000  Level FlightAware Transoceanic
04:59PM 29.2667 -131.0167 72° East 457 526 37,000  Level Oakland Oceanic (ODAPS)
05:00PM 29.3462 -130.7348 72° East 457 526 37,000  Level FlightAware Transoceanic
05:01PM 29.3857 -130.5937 72° East 457 526 37,000  Level FlightAware Transoceanic
05:02PM 29.4251 -130.4525 72° East 457 526 37,000  Level FlightAware Transoceanic
05:03PM 29.4643 -130.3112 72° East 457 526 37,000  Level FlightAware Transoceanic
05:04PM 29.5033 -130.1698 72° East 457 526 37,000  Level FlightAware Transoceanic
05:05PM 29.5423 -130.0283 72° East 457 526 37,000  Level FlightAware Transoceanic
05:06PM 29.5371 -130.0470 72° East 457 526 37,000  Level FlightAware Transoceanic
05:07PM 29.5752 -129.9080 73° East 457 526 37,000  Level FlightAware Transoceanic
05:08PM 29.6131 -129.7690 73° East 457 526 37,000  Level FlightAware Transoceanic
05:09PM 29.6509 -129.6298 73° East 457 526 37,000  Level FlightAware Transoceanic
05:10PM 29.6885 -129.4906 73° East 457 526 37,000  Level FlightAware Transoceanic
05:11PM 29.7260 -129.3512 73° East 457 526 37,000  Level FlightAware Transoceanic
05:12PM 29.7633 -129.2117 73° East 457 526 37,000  Level FlightAware Transoceanic
05:13PM 29.8005 -129.0721 73° East 457 526 37,000  Level FlightAware Transoceanic
05:14PM 29.8376 -128.9325 73° East 457 526 37,000  Level FlightAware Transoceanic
05:15PM 29.8745 -128.7927 73° East 457 526 37,000  Level FlightAware Transoceanic
05:16PM 29.9112 -128.6528 73° East 457 526 37,000  Level FlightAware Transoceanic
05:17PM 29.9478 -128.5128 73° East 457 526 37,000  Level FlightAware Transoceanic
05:18PM 29.9843 -128.3727 73° East 457 526 37,000  Level FlightAware Transoceanic
05:19PM 30.0206 -128.2325 73° East 457 526 37,000  Level FlightAware Transoceanic
05:20PM 30.0567 -128.0922 73° East 457 526 37,000  Level FlightAware Transoceanic
05:21PM 30.0928 -127.9518 74° East 457 526 37,000  Level FlightAware Transoceanic
05:22PM 30.1286 -127.8113 74° East 457 526 37,000  Level FlightAware Transoceanic
05:23PM 30.1643 -127.6707 74° East 457 526 37,000  Level FlightAware Transoceanic
05:24PM 30.1999 -127.5300 74° East 457 526 37,000  Level FlightAware Transoceanic
05:25PM 30.2353 -127.3892 74° East 457 526 37,000  Level FlightAware Transoceanic
05:26PM 30.2705 -127.2483 74° East 457 526 37,000  Level FlightAware Transoceanic
05:27PM 30.3057 -127.1073 74° East 457 526 37,000  Level FlightAware Transoceanic
05:28PM 30.3406 -126.9662 74° East 457 526 37,000  Level FlightAware Transoceanic
05:29PM 30.3754 -126.8250 74° East 457 526 37,000  Level FlightAware Transoceanic
05:30PM 30.4101 -126.6837 74° East 457 526 37,000  Level FlightAware Transoceanic
05:31PM 30.4446 -126.5423 74° East 457 526 37,000  Level FlightAware Transoceanic
05:32PM 30.4789 -126.4008 74° East 457 526 37,000  Level FlightAware Transoceanic
05:33PM 30.5131 -126.2592 74° East 457 526 37,000  Level FlightAware Transoceanic
05:34PM 30.5471 -126.1174 74° East 457 526 37,000  Level FlightAware Transoceanic
05:35PM 30.5810 -125.9756 75° East 457 526 37,000  Level FlightAware Transoceanic
05:36PM 30.6148 -125.8337 75° East 457 526 37,000  Level FlightAware Transoceanic
05:37PM 30.6483 -125.6917 75° East 457 526 37,000  Level FlightAware Transoceanic
05:38PM 30.6818 -125.5496 75° East 457 526 37,000  Level FlightAware Transoceanic
05:39PM 30.7150 -125.4074 75° East 457 526 37,000  Level FlightAware Transoceanic
05:40PM 30.7482 -125.2651 75° East 457 526 37,000  Level FlightAware Transoceanic
05:41PM 30.7811 -125.1227 75° East 457 526 37,000  Level FlightAware Transoceanic
05:42PM 30.8139 -124.9802 75° East 457 526 37,000  Level FlightAware Transoceanic
05:43PM 30.8466 -124.8376 75° East 457 526 37,000  Level FlightAware Transoceanic
05:44PM 30.8791 -124.6950 75° East 457 526 37,000  Level FlightAware Transoceanic
05:45PM 30.9114 -124.5522 75° East 457 526 37,000  Level FlightAware Transoceanic
05:46PM 30.9436 -124.4093 75° East 457 526 37,000  Level FlightAware Transoceanic
05:47PM 30.9756 -124.2663 75° East 457 526 37,000  Level FlightAware Transoceanic
05:48PM 31.0075 -124.1232 75° East 457 526 37,000  Level FlightAware Transoceanic
05:49PM 31.0392 -123.9801 76° East 457 526 37,000  Level FlightAware Transoceanic
05:50PM 31.0707 -123.8368 76° East 457 526 37,000  Level FlightAware Transoceanic
05:51PM 31.1021 -123.6935 76° East 457 526 37,000  Level FlightAware Transoceanic
05:52PM 31.1333 -123.5500 77° East 457 526 37,000  Level FlightAware Transoceanic
05:53PM 31.1622 -123.4073 77° East 457 526 37,000  Level FlightAware Transoceanic
05:53PM 31.1536 -123.3803 77° East 480 552 37,000  Level Los Angeles Center
05:54PM 31.1910 -123.2644 77° East 457 526 37,000  Level FlightAware Transoceanic
05:55PM 31.2195 -123.1215 77° East 457 526 37,000  Level FlightAware Transoceanic
05:55PM 31.1875 -123.2389 74° East 460 529 37,000  Level Los Angeles Center
05:56PM 31.2479 -122.9785 77° East 457 526 37,000  Level FlightAware Transoceanic
05:56PM 31.2506 -123.0703 66° East 469 540 37,000  Level Los Angeles Center
05:57PM 31.2762 -122.8355 77° East 457 526 37,000  Level FlightAware Transoceanic
05:57PM 31.3131 -122.9389 61° Northeast 471 542 37,000  Level Los Angeles Center
05:58PM 31.3043 -122.6923 77° East 457 526 37,000  Level FlightAware Transoceanic
05:58PM 31.3764 -122.8108 60° Northeast 467 537 37,000  Level Los Angeles Center
05:59PM 31.3322 -122.5490 77° East 457 526 37,000  Level FlightAware Transoceanic
05:59PM 31.4372 -122.6808 61° Northeast 463 533 37,000  Level Los Angeles Center
06:00PM 31.4986 -122.5478 62° Northeast 463 533 37,000  Level Los Angeles Center
06:01PM 31.5722 -122.3878 62° Northeast 464 534 37,000  Level Los Angeles Center
06:02PM 31.6331 -122.2567 61° Northeast 462 532 37,000  Level Los Angeles Center
06:03PM 31.6942 -122.1233 62° Northeast 462 532 37,000  Level Los Angeles Center
06:04PM 31.7547 -121.9897 62° Northeast 463 533 37,000  Level Los Angeles Center
06:05PM 31.8158 -121.8553 62° Northeast 465 535 37,000  Level Los Angeles Center
06:06PM 31.8639 -121.7472 62° Northeast 466 536 37,000  Level Los Angeles Center
06:07PM 31.9511 -121.5700 60° Northeast 454 522 37,000  Level Los Angeles Center
06:08PM 32.0106 -121.4308 63° Northeast 471 542 37,000  Level Los Angeles Center
06:09PM 32.0725 -121.2967 61° Northeast 471 542 37,000  Level Los Angeles Center
06:10PM 32.1317 -121.1583 63° Northeast 471 542 37,000  Level Los Angeles Center
06:11PM 32.1922 -121.0203 63° Northeast 474 545 37,000  Level Los Angeles Center
06:12PM 32.2750 -120.8214 64° Northeast 481 554 37,000  Level Los Angeles Center
06:13PM 32.3339 -120.6847 63° Northeast 476 548 37,000  Level Los Angeles Center
06:14PM 32.3931 -120.5503 62° Northeast 468 539 37,000  Level Los Angeles Center
06:15PM 32.4519 -120.4169 62° Northeast 463 533 37,000  Level Los Angeles Center
06:16PM 32.5106 -120.2789 63° Northeast 466 536 37,000  Level Los Angeles Center
06:18PM 32.5678 -120.1500 62° Northeast 458 527 37,000  Level Los Angeles Center
06:19PM 32.6375 -119.9856 63° Northeast 464 534 37,000 -780 Level Los Angeles Center
06:20PM 32.6939 -119.8503 64° Northeast 460 529 35,500 -2,760 Descending Los Angeles Center
06:21PM 32.7492 -119.7197 63° Northeast 446 513 31,400 -3,960 Descending Los Angeles Center
06:22PM 32.8050 -119.5881 63° Northeast 447 514 27,400 -2,940 Descending Los Angeles Center
06:23PM 32.8581 -119.4592 64° Northeast 437 503 25,400 -2,160 Descending Los Angeles Center
06:24PM 32.9208 -119.3103 63° Northeast 422 486 23,000 -2,160 Descending Los Angeles Center
06:25PM 32.9714 -119.1914 63° Northeast 406 467 21,000 -1,560 Descending Los Angeles Center
06:31PM 33.2380 -118.6000 63° Northeast 339 390 12,000 -1,380 Descending FlightAware
06:31PM 33.2860 -118.5380 47° Northeast 331 381 12,000  Level FlightAware
06:32PM 33.3340 -118.4760 47° Northeast 333 383 12,000  Level FlightAware
06:33PM 33.3650 -118.4040 63° Northeast 315 362 12,000  Level FlightAware
06:34PM 33.3750 -118.3350 80° East 311 358 12,000  Level FlightAware
06:34PM 33.3860 -118.2610 80° East 309 356 12,000  Level FlightAware
06:35PM 33.3960 -118.1950 80° East 304 350 12,000  Level FlightAware
06:35PM 33.4030 -118.1690 72° East 296 341 12,000 -420 Level FlightAware
06:35PM 33.4130 -118.1510 56° Northeast 298 343 11,800 -1,200 Descending FlightAware
06:36PM 33.4590 -118.1100 37° Northeast 300 345 10,900 -1,320 Descending FlightAware
06:37PM 33.5050 -118.0730 34° Northeast 295 339 10,100 -1,140 Descending FlightAware
06:37PM 33.5390 -118.0480 32° Northeast 285 328 9,600 -1,200 Descending FlightAware
06:38PM 33.5760 -118.0280 24° Northeast 293 337 8,900 -1,380 Descending FlightAware
06:38PM 33.5900 -118.0280 360° North 295 339 8,700 -1,200 Descending FlightAware
06:38PM 33.6280 -118.0330 354° North 276 318 8,100 -1,140 Descending FlightAware
06:39PM 33.6640 -118.0430 347° North 267 307 7,600 -1,020 Descending FlightAware
06:39PM 33.6960 -118.0540 344° North 265 305 7,200 -660 Descending FlightAware
06:40PM 33.7320 -118.0670 343° North 265 305 7,000 -360 Descending FlightAware
06:40PM 33.7590 -118.0760 345° North 264 304 6,900 -600 Descending FlightAware
06:41PM 33.7950 -118.0810 353° North 252 290 6,500 -900 Descending FlightAware
06:41PM 33.8290 -118.0820 359° North 245 282 6,000 -1,200 Descending FlightAware
06:42PM 33.8590 -118.0830 358° North 242 278 5,400 -1,200 Descending FlightAware
06:42PM 33.8860 -118.0830 360° North 238 274 5,000 -780 Descending FlightAware
06:43PM 33.9170 -118.0850 357° North 215 247 4,700 -720 Descending FlightAware
06:43PM 33.9290 -118.0950 325° Northwest 204 235 4,500 -960 Descending FlightAware
06:43PM 33.9420 -118.1260 297° West 203 234 4,000 -1,140 Descending FlightAware
06:44PM 33.9510 -118.1510 293° West 204 235 3,500 -960 Descending FlightAware
06:45PM 33.9490 -118.2020 267° West 193 222 2,900 -780 Descending FlightAware
06:45PM 33.9470 -118.2260 264° West 185 213 2,600 -360 Descending FlightAware
06:45PM 33.9440 -118.2570 263° West 189 217 2,600 -480 Level FlightAware
06:46PM 33.9410 -118.2850 263° West 190 219 2,200 -660 Descending FlightAware
06:46PM 33.9400 -118.3020 266° West 177 204 2,000 -660 Descending FlightAware
06:47PM 33.9370 -118.3250 261° West 154 177 1,600 -960 Descending FlightAware
06:47PM 33.9360 -118.3460 267° West 137 158 1,200 -480 Descending FlightAware
06:48PM 33.9340 -118.3640 262° West 137 158 1,200 -600 Level FlightAware
06:48PM 33.9320 -118.3870 264° West 132 152 600 -960 Descending FlightAware
06:49PM 33.9300 -118.4100 264° West 130 150 200 -480 Descending FlightAware
06:49PM 33.9280 -118.4270 262° West 130 150 200  Level FlightAware